Pagrindinis puslapis
METAR-TAF:

METAR-TAF

Oro uostai :

Jakutskas, Rusija

platuma: 62-01N, ilguma: 129-43E, Aukštis: 103 m

Dabartinis oras

Ataskaita buvo paskelbta 29 minutes, ne 08:00 UTC
Vėjas 2 kt iš Šiaurės
Temperatūra -45°C
Drėgmė 57%
Slėgis 1028 hPa
Matomumas: 0450 m
rūkas

METAR: UEEE 250800Z 35001MPS 0500 0450SW R23L/1300D FG VV004 M45/M50 Q1028 R23L/450145 NOSIG RMK QBB120 QFE762

Laikas: 17:29 (08:29 UTC)

Prognozė

Ataskaita buvo paskelbta 3 valandos ir 29 minutes, ne 05:00 UTC
Prognozė galioja nuo 25 metu 06 UTC su 26 metu 12 UTC
Vėjas 2 kt nuo kintamojo kryptimis
Matomumas: 0300 m
ne aukštis 300 ft
rūkas
Laikinai
nuo 25 metu 06 UTC su 25 metu 15 UTC
Matomumas: 0800 m
rūkas

TAF: UEEE 250500Z 2506/2612 VRB01MPS 0300 FG VV003 TXM43/2506Z TNM49/2523Z TEMPO 2506/2515 0800 FG NSC

Orai ataskaitas ir orų prognozės (METAR, TAF).

turimą stotys yra geltonos ir raudonos taškus žemėlapyje.

Perkelti pele per norėdami pamatyti stoties vardą.

Tada spustelėkite, norėdami matyti oro stebėjimo ir prognozės.

Norėdami pakeisti žemėlapį: spustelėkite ant žalios mygtukų su juodo kryžiaus žemyn,; žalią mygtuką su brūkšneliu, jei norite nutolinti; arba žalių rodyklių gretimoms žemėlapius.


METAR-TAF: